South Milford, IN (46786)

12:56 PM EST on January 23, 2017 (GMT -0500)
Adams Lake | | Change Station

Elev 955 ft 41.56 °N, 85.32 °W | Updated 42 seconds ago

Overcast
Overcast
41.9 °F
Feels Like 42 °F
N
2.0
Wind Variable Wind from NW

Today
High -- | Low -- °F
--% Chance of Precip.
Yesterday
High -- | Low -- °F
Precip. -- in
Pressure 29.66 in
Visibility 1.2 miles
Clouds Overcast 200 ft
Windchill 42 °F
Dew Point 40 °F
Humidity 93%
Rainfall 0.00 in
Snow Depth Not available.
8:00 AM 5:46 PM
Waning Crescent, 17% visible
METAR KANQ 231755Z AUTO 01005KT 1 1/4SM OVC002 07/01 A2966 RMK
Pressure 29.66 in
Visibility 1.2 miles
Clouds Overcast 200 ft
Windchill 42 °F
Dew Point 40 °F
Humidity 93%
Rainfall 0.00 in
Snow Depth Not available.
8:00 AM 5:46 PM
Waning Crescent, 17% visible
METAR KANQ 231755Z AUTO 01005KT 1 1/4SM OVC002 07/01 A2966 RMK

Get Your Daily Forecast Email!

Thanks for signing up!

Be on the lookout for a verification email in your inbox.

You'll start receiving the daily forecast at 8 AM.

×

10-Day Weather Forecast

Almanac

Astronomy

Jan. 23, 2017 Rise Set
Actual Time
Civil Twilight
Nautical Twilight
Astronomical Twilight
Moon
Length of Visible Light
Length of Day
Tomorrow will be .
, % of the Moon is Illuminated

Today's Extremes

State Highs State Lows

Community

WunderPhotos

Upload Photos

1,962,540 photos uploaded!

WunderBlog® & News

Nearby

Air Quality

  Air Quality AQ Index Pollutant
Not available.

Snow Depth

Station Depth Elevation

Earthquake Activity

City Distance Mag. Time & Date
Minimum magnitude displayed is 2.5.

Coastal Water Temperatures

Place Temperature

Stations

Nearby Weather Stations

Station Location Temp. Windchill Dew Point Humidity Wind Precip. Elev Updated Type
                   

Watches & Warnings

There are currently no watches in effect.